메인 페이지
METAR-TAF:

METAR-TAF

공항 :

우수아이아, 아르헨티나

위도: 54-48S, 경도: 068-19W, 고도: 16m

현재 날씨관측

예보는 41분 전, 12:00시(UTC)에 발표되었습니다.
13kt
온도 -4°C
습도 93%
기압 990 hPa
시정: 5000m
고도 1000ft 상공 흐림

METAR: SAWH 221200Z 27013KT 5000 SN OVC010 M04/M05 Q0990

시각: 09:41 (12:41 UTC)

예보

예보는 1 시간 41분 전, 11:00시(UTC)에 발표되었습니다.
예보 대상 시간: 22일 12시부터 23일 12시까지 (UTC)
25kt, 순간 최대 풍속 35kt
시정: 7000m
고도 2000ft 상공 구름 많음
고도 3000ft 상공 구름 많음
일시적
22일 17시부터 22일 20시까지 (UTC)
남서35kt, 순간 최대 풍속 45kt

TAF: SAWH 221100Z 2212/2312 27025G35KT 7000 SN BKN020 BKN030 TXM01/2218Z TNM03/2210Z TEMPO 2217/2220 23035G45KT

4,000개 이상의 공항 관측 자료 및 예보 (METAR 및 TAF 보고).

지도상에서 검색 가능한 기상관측소가 노란 점과 빨간 점으로 표시되어 있습니다.

기상관측소 명을 보려면 표시 위로 마우스를 이동하세요.

날씨 관측과 예보를 보려면 클릭하세요.

지도 변경 : 확대하려면 엑스 표시가 있는 녹색 버튼, 축소하려면 빼기 표시가 있는 녹색 버튼, 다음 페이지의 지도를 보려면 녹색 화살표를 클릭하세요.


METAR-TAF: